sensor_id;sensor_type;location;lat;lon;timestamp;pressure;altitude;pressure_sealevel;temperature;humidity
5755;BME280;2902;42.130;24.732;2022-11-20T00:01:05;98908.00;;;13.31;100.00
5755;BME280;2902;42.130;24.732;2022-11-20T00:03:32;98908.66;;;13.15;100.00
5755;BME280;2902;42.130;24.732;2022-11-20T00:06:00;98911.50;;;13.02;100.00
5755;BME280;2902;42.130;24.732;2022-11-20T00:08:26;98912.97;;;13.16;100.00
5755;BME280;2902;42.130;24.732;2022-11-20T00:10:53;98908.06;;;13.13;100.00
5755;BME280;2902;42.130;24.732;2022-11-20T00:13:20;98911.47;;;13.20;100.00
5755;BME280;2902;42.130;24.732;2022-11-20T00:15:46;98903.72;;;13.30;100.00
5755;BME280;2902;42.130;24.732;2022-11-20T00:18:14;98895.59;;;13.25;100.00
5755;BME280;2902;42.130;24.732;2022-11-20T00:20:41;98910.44;;;13.21;100.00
5755;BME280;2902;42.130;24.732;2022-11-20T00:23:08;98906.97;;;13.32;100.00
5755;BME280;2902;42.130;24.732;2022-11-20T00:25:34;98896.28;;;13.32;100.00
5755;BME280;2902;42.130;24.732;2022-11-20T00:28:01;98894.44;;;13.33;100.00
5755;BME280;2902;42.130;24.732;2022-11-20T00:30:27;98913.03;;;13.39;100.00
5755;BME280;2902;42.130;24.732;2022-11-20T00:32:56;98921.25;;;13.38;100.00
5755;BME280;2902;42.130;24.732;2022-11-20T00:35:24;98900.28;;;13.41;100.00
5755;BME280;2902;42.130;24.732;2022-11-20T00:37:51;98893.63;;;13.32;100.00
5755;BME280;2902;42.130;24.732;2022-11-20T00:40:18;98904.56;;;13.31;100.00
5755;BME280;2902;42.130;24.732;2022-11-20T00:42:44;98887.16;;;13.40;100.00
5755;BME280;2902;42.130;24.732;2022-11-20T00:45:11;98894.38;;;13.51;100.00
5755;BME280;2902;42.130;24.732;2022-11-20T00:47:38;98908.31;;;13.53;100.00
5755;BME280;2902;42.130;24.732;2022-11-20T00:50:05;98912.13;;;13.45;100.00
5755;BME280;2902;42.130;24.732;2022-11-20T00:52:33;98911.78;;;13.53;100.00
5755;BME280;2902;42.130;24.732;2022-11-20T00:54:59;98916.81;;;13.61;100.00
5755;BME280;2902;42.130;24.732;2022-11-20T00:57:26;98922.22;;;13.55;100.00
5755;BME280;2902;42.130;24.732;2022-11-20T00:59:53;98900.81;;;13.20;100.00
5755;BME280;2902;42.130;24.732;2022-11-20T01:02:19;98905.34;;;13.31;100.00
5755;BME280;2902;42.130;24.732;2022-11-20T01:04:46;98915.72;;;13.51;100.00
5755;BME280;2902;42.130;24.732;2022-11-20T01:07:13;98910.31;;;13.57;100.00
5755;BME280;2902;42.130;24.732;2022-11-20T01:09:41;98904.47;;;13.60;100.00
5755;BME280;2902;42.130;24.732;2022-11-20T01:12:07;98899.34;;;13.47;100.00
5755;BME280;2902;42.130;24.732;2022-11-20T01:14:35;98907.03;;;13.55;100.00
5755;BME280;2902;42.130;24.732;2022-11-20T01:17:02;98883.03;;;13.55;100.00
5755;BME280;2902;42.130;24.732;2022-11-20T01:19:28;98874.91;;;13.62;100.00
5755;BME280;2902;42.130;24.732;2022-11-20T01:21:55;98902.63;;;13.61;100.00
5755;BME280;2902;42.130;24.732;2022-11-20T01:24:22;98902.22;;;13.34;100.00
5755;BME280;2902;42.130;24.732;2022-11-20T01:26:51;98872.63;;;13.24;100.00
5755;BME280;2902;42.130;24.732;2022-11-20T01:29:19;98875.38;;;13.18;100.00
5755;BME280;2902;42.130;24.732;2022-11-20T01:31:46;98869.94;;;13.24;100.00
5755;BME280;2902;42.130;24.732;2022-11-20T01:34:15;98874.72;;;13.34;100.00
5755;BME280;2902;42.130;24.732;2022-11-20T01:36:42;98879.31;;;13.15;100.00
5755;BME280;2902;42.130;24.732;2022-11-20T01:39:11;98863.59;;;13.25;100.00
5755;BME280;2902;42.130;24.732;2022-11-20T01:41:38;98861.50;;;13.27;100.00
5755;BME280;2902;42.130;24.732;2022-11-20T01:44:45;98862.13;;;13.41;100.00
5755;BME280;2902;42.130;24.732;2022-11-20T01:47:16;98853.44;;;13.45;100.00
5755;BME280;2902;42.130;24.732;2022-11-20T01:49:48;98840.22;;;13.50;100.00
5755;BME280;2902;42.130;24.732;2022-11-20T01:52:20;98851.59;;;13.57;100.00
5755;BME280;2902;42.130;24.732;2022-11-20T01:54:53;98844.03;;;13.66;100.00
5755;BME280;2902;42.130;24.732;2022-11-20T01:57:22;98846.81;;;13.71;100.00
5755;BME280;2902;42.130;24.732;2022-11-20T01:59:57;98839.41;;;13.73;100.00
5755;BME280;2902;42.130;24.732;2022-11-20T02:02:26;98835.47;;;13.75;100.00
5755;BME280;2902;42.130;24.732;2022-11-20T02:04:57;98843.78;;;13.33;100.00
5755;BME280;2902;42.130;24.732;2022-11-20T02:07:27;98840.78;;;13.41;100.00
5755;BME280;2902;42.130;24.732;2022-11-20T02:09:54;98836.59;;;13.56;100.00
5755;BME280;2902;42.130;24.732;2022-11-20T02:12:21;98841.38;;;13.66;100.00
5755;BME280;2902;42.130;24.732;2022-11-20T02:15:06;98833.47;;;13.59;100.00
5755;BME280;2902;42.130;24.732;2022-11-20T02:17:33;98832.91;;;13.69;100.00
5755;BME280;2902;42.130;24.732;2022-11-20T02:20:00;98823.41;;;13.73;100.00
5755;BME280;2902;42.130;24.732;2022-11-20T02:22:30;98838.03;;;13.82;100.00
5755;BME280;2902;42.130;24.732;2022-11-20T02:25:02;98826.50;;;13.81;100.00
5755;BME280;2902;42.130;24.732;2022-11-20T02:27:30;98816.56;;;13.77;100.00
5755;BME280;2902;42.130;24.732;2022-11-20T02:29:58;98823.75;;;13.76;100.00
5755;BME280;2902;42.130;24.732;2022-11-20T02:32:28;98820.00;;;13.77;100.00
5755;BME280;2902;42.130;24.732;2022-11-20T02:34:56;98820.59;;;13.79;100.00
5755;BME280;2902;42.130;24.732;2022-11-20T02:37:23;98798.22;;;13.57;100.00
5755;BME280;2902;42.130;24.732;2022-11-20T02:39:53;98794.38;;;13.65;100.00
5755;BME280;2902;42.130;24.732;2022-11-20T02:42:21;98800.75;;;13.75;100.00
5755;BME280;2902;42.130;24.732;2022-11-20T02:44:48;98805.53;;;13.85;100.00
5755;BME280;2902;42.130;24.732;2022-11-20T02:47:15;98798.00;;;13.70;100.00
5755;BME280;2902;42.130;24.732;2022-11-20T02:49:41;98818.53;;;13.70;100.00
5755;BME280;2902;42.130;24.732;2022-11-20T02:52:08;98822.13;;;13.75;100.00
5755;BME280;2902;42.130;24.732;2022-11-20T02:54:35;98816.31;;;13.55;100.00
5755;BME280;2902;42.130;24.732;2022-11-20T02:57:02;98806.31;;;13.39;100.00
5755;BME280;2902;42.130;24.732;2022-11-20T02:59:30;98815.38;;;13.50;100.00
5755;BME280;2902;42.130;24.732;2022-11-20T03:01:56;98814.81;;;13.59;100.00
5755;BME280;2902;42.130;24.732;2022-11-20T03:04:23;98800.88;;;13.34;100.00
5755;BME280;2902;42.130;24.732;2022-11-20T03:06:50;98793.34;;;13.43;100.00
5755;BME280;2902;42.130;24.732;2022-11-20T03:09:16;98803.66;;;13.51;100.00
5755;BME280;2902;42.130;24.732;2022-11-20T03:11:43;98797.63;;;13.55;100.00
5755;BME280;2902;42.130;24.732;2022-11-20T03:14:10;98809.34;;;13.54;100.00
5755;BME280;2902;42.130;24.732;2022-11-20T03:16:38;98809.56;;;13.64;100.00
5755;BME280;2902;42.130;24.732;2022-11-20T03:19:04;98806.56;;;13.49;100.00
5755;BME280;2902;42.130;24.732;2022-11-20T03:21:33;98796.13;;;13.59;100.00
5755;BME280;2902;42.130;24.732;2022-11-20T03:24:00;98802.97;;;13.67;100.00
5755;BME280;2902;42.130;24.732;2022-11-20T03:26:27;98793.81;;;13.74;100.00
5755;BME280;2902;42.130;24.732;2022-11-20T03:28:56;98803.91;;;13.84;100.00
5755;BME280;2902;42.130;24.732;2022-11-20T03:31:24;98788.31;;;13.92;100.00
5755;BME280;2902;42.130;24.732;2022-11-20T03:33:53;98794.81;;;13.96;100.00
5755;BME280;2902;42.130;24.732;2022-11-20T03:36:20;98785.91;;;14.02;100.00
5755;BME280;2902;42.130;24.732;2022-11-20T03:38:47;98776.94;;;14.08;100.00
5755;BME280;2902;42.130;24.732;2022-11-20T03:41:17;98794.56;;;14.09;100.00
5755;BME280;2902;42.130;24.732;2022-11-20T03:43:47;98792.50;;;14.11;100.00
5755;BME280;2902;42.130;24.732;2022-11-20T03:46:14;98823.47;;;14.12;100.00
5755;BME280;2902;42.130;24.732;2022-11-20T03:48:41;98810.28;;;13.94;100.00
5755;BME280;2902;42.130;24.732;2022-11-20T03:51:11;98802.75;;;13.80;100.00
5755;BME280;2902;42.130;24.732;2022-11-20T03:53:38;98793.56;;;13.87;100.00
5755;BME280;2902;42.130;24.732;2022-11-20T03:56:06;98792.03;;;14.03;100.00
5755;BME280;2902;42.130;24.732;2022-11-20T03:58:34;98798.16;;;14.15;100.00
5755;BME280;2902;42.130;24.732;2022-11-20T04:01:06;98808.84;;;14.26;100.00
5755;BME280;2902;42.130;24.732;2022-11-20T04:03:32;98796.63;;;14.30;100.00
5755;BME280;2902;42.130;24.732;2022-11-20T04:06:02;98791.56;;;14.29;100.00
5755;BME280;2902;42.130;24.732;2022-11-20T04:08:30;98802.09;;;14.35;100.00
5755;BME280;2902;42.130;24.732;2022-11-20T04:10:57;98807.06;;;14.43;100.00
5755;BME280;2902;42.130;24.732;2022-11-20T04:13:33;98812.97;;;14.45;100.00
5755;BME280;2902;42.130;24.732;2022-11-20T04:16:00;98818.31;;;14.45;100.00
5755;BME280;2902;42.130;24.732;2022-11-20T04:18:27;98828.09;;;14.51;100.00
5755;BME280;2902;42.130;24.732;2022-11-20T04:20:53;98827.59;;;14.54;100.00
5755;BME280;2902;42.130;24.732;2022-11-20T04:23:20;98825.78;;;14.43;100.00
5755;BME280;2902;42.130;24.732;2022-11-20T04:25:48;98832.66;;;14.39;100.00
5755;BME280;2902;42.130;24.732;2022-11-20T04:28:15;98813.25;;;14.32;100.00
5755;BME280;2902;42.130;24.732;2022-11-20T04:30:42;98794.47;;;14.27;100.00
5755;BME280;2902;42.130;24.732;2022-11-20T04:33:09;98810.50;;;14.27;100.00
5755;BME280;2902;42.130;24.732;2022-11-20T04:35:36;98822.69;;;14.23;100.00
5755;BME280;2902;42.130;24.732;2022-11-20T04:38:03;98818.47;;;14.16;100.00
5755;BME280;2902;42.130;24.732;2022-11-20T04:40:30;98807.69;;;14.22;100.00
5755;BME280;2902;42.130;24.732;2022-11-20T04:42:59;98814.53;;;14.30;100.00
5755;BME280;2902;42.130;24.732;2022-11-20T04:45:25;98812.78;;;14.24;100.00
5755;BME280;2902;42.130;24.732;2022-11-20T04:47:52;98808.31;;;14.52;100.00
5755;BME280;2902;42.130;24.732;2022-11-20T04:50:19;98799.63;;;14.73;100.00
5755;BME280;2902;42.130;24.732;2022-11-20T04:52:46;98804.75;;;14.91;100.00
5755;BME280;2902;42.130;24.732;2022-11-20T04:55:12;98810.41;;;15.06;100.00
5755;BME280;2902;42.130;24.732;2022-11-20T04:57:39;98826.88;;;15.15;100.00
5755;BME280;2902;42.130;24.732;2022-11-20T05:00:08;98834.78;;;15.10;100.00
5755;BME280;2902;42.130;24.732;2022-11-20T05:02:35;98814.22;;;15.10;100.00
5755;BME280;2902;42.130;24.732;2022-11-20T05:05:02;98815.00;;;14.94;100.00
5755;BME280;2902;42.130;24.732;2022-11-20T05:07:29;98813.47;;;14.98;100.00
5755;BME280;2902;42.130;24.732;2022-11-20T05:09:55;98810.88;;;15.03;100.00
5755;BME280;2902;42.130;24.732;2022-11-20T05:12:22;98820.03;;;15.07;100.00
5755;BME280;2902;42.130;24.732;2022-11-20T05:14:49;98833.41;;;15.07;100.00
5755;BME280;2902;42.130;24.732;2022-11-20T05:17:17;98845.22;;;14.95;100.00
5755;BME280;2902;42.130;24.732;2022-11-20T05:19:43;98826.88;;;14.59;100.00
5755;BME280;2902;42.130;24.732;2022-11-20T05:22:10;98825.50;;;14.56;100.00
5755;BME280;2902;42.130;24.732;2022-11-20T05:24:37;98834.28;;;14.68;100.00
5755;BME280;2902;42.130;24.732;2022-11-20T05:27:03;98839.16;;;14.71;100.00
5755;BME280;2902;42.130;24.732;2022-11-20T05:29:30;98836.38;;;14.66;100.00
5755;BME280;2902;42.130;24.732;2022-11-20T05:31:57;98818.13;;;14.35;100.00
5755;BME280;2902;42.130;24.732;2022-11-20T05:34:25;98806.34;;;14.48;100.00
5755;BME280;2902;42.130;24.732;2022-11-20T05:36:51;98817.25;;;14.58;100.00
5755;BME280;2902;42.130;24.732;2022-11-20T05:39:18;98828.09;;;14.51;100.00
5755;BME280;2902;42.130;24.732;2022-11-20T05:41:45;98824.50;;;14.46;100.00
5755;BME280;2902;42.130;24.732;2022-11-20T05:44:14;98816.03;;;14.37;100.00
5755;BME280;2902;42.130;24.732;2022-11-20T05:46:41;98812.28;;;14.38;100.00
5755;BME280;2902;42.130;24.732;2022-11-20T05:49:08;98834.50;;;14.39;100.00
5755;BME280;2902;42.130;24.732;2022-11-20T05:51:36;98838.34;;;14.31;100.00
5755;BME280;2902;42.130;24.732;2022-11-20T05:54:03;98811.19;;;14.11;100.00
5755;BME280;2902;42.130;24.732;2022-11-20T05:56:29;98824.75;;;14.21;100.00
5755;BME280;2902;42.130;24.732;2022-11-20T05:58:56;98828.13;;;14.28;100.00
5755;BME280;2902;42.130;24.732;2022-11-20T06:01:24;98842.19;;;14.35;100.00
5755;BME280;2902;42.130;24.732;2022-11-20T06:03:52;98843.44;;;14.44;100.00
5755;BME280;2902;42.130;24.732;2022-11-20T06:06:19;98820.69;;;14.30;100.00
5755;BME280;2902;42.130;24.732;2022-11-20T06:08:48;98825.19;;;14.41;100.00
5755;BME280;2902;42.130;24.732;2022-11-20T06:11:16;98832.38;;;14.52;100.00
5755;BME280;2902;42.130;24.732;2022-11-20T06:13:43;98824.44;;;14.57;100.00
5755;BME280;2902;42.130;24.732;2022-11-20T06:16:12;98857.44;;;14.63;100.00
5755;BME280;2902;42.130;24.732;2022-11-20T06:18:39;98818.22;;;14.40;100.00
5755;BME280;2902;42.130;24.732;2022-11-20T06:21:07;98840.53;;;14.34;100.00
5755;BME280;2902;42.130;24.732;2022-11-20T06:23:35;98869.09;;;14.45;100.00
5755;BME280;2902;42.130;24.732;2022-11-20T06:26:05;98855.28;;;14.48;100.00
5755;BME280;2902;42.130;24.732;2022-11-20T06:28:32;98860.91;;;14.63;100.00
5755;BME280;2902;42.130;24.732;2022-11-20T06:30:59;98867.16;;;14.80;100.00
5755;BME280;2902;42.130;24.732;2022-11-20T06:33:26;98848.91;;;14.77;100.00
5755;BME280;2902;42.130;24.732;2022-11-20T06:35:56;98843.47;;;14.72;100.00
5755;BME280;2902;42.130;24.732;2022-11-20T06:38:23;98858.16;;;14.86;100.00
5755;BME280;2902;42.130;24.732;2022-11-20T06:40:50;98857.41;;;15.02;100.00
5755;BME280;2902;42.130;24.732;2022-11-20T06:43:18;98867.78;;;15.15;100.00
5755;BME280;2902;42.130;24.732;2022-11-20T06:45:44;98850.97;;;15.31;100.00
5755;BME280;2902;42.130;24.732;2022-11-20T06:48:11;98854.81;;;15.35;100.00
5755;BME280;2902;42.130;24.732;2022-11-20T06:50:38;98839.47;;;15.47;100.00
5755;BME280;2902;42.130;24.732;2022-11-20T06:53:05;98861.44;;;15.49;100.00
5755;BME280;2902;42.130;24.732;2022-11-20T06:55:32;98850.75;;;15.49;100.00
5755;BME280;2902;42.130;24.732;2022-11-20T06:57:58;98855.22;;;15.60;100.00
5755;BME280;2902;42.130;24.732;2022-11-20T07:00:26;98879.22;;;15.72;100.00
5755;BME280;2902;42.130;24.732;2022-11-20T07:02:53;98887.59;;;15.75;100.00
5755;BME280;2902;42.130;24.732;2022-11-20T07:05:20;98874.75;;;15.77;100.00
5755;BME280;2902;42.130;24.732;2022-11-20T07:07:47;98873.06;;;15.88;100.00
5755;BME280;2902;42.130;24.732;2022-11-20T07:10:13;98860.91;;;15.97;100.00
5755;BME280;2902;42.130;24.732;2022-11-20T07:12:40;98864.94;;;16.00;100.00
5755;BME280;2902;42.130;24.732;2022-11-20T07:15:07;98880.19;;;16.16;100.00
5755;BME280;2902;42.130;24.732;2022-11-20T07:17:35;98884.19;;;16.35;100.00
5755;BME280;2902;42.130;24.732;2022-11-20T07:20:02;98866.69;;;16.11;100.00
5755;BME280;2902;42.130;24.732;2022-11-20T07:22:29;98868.88;;;16.14;100.00
5755;BME280;2902;42.130;24.732;2022-11-20T07:24:57;98869.47;;;16.16;100.00
5755;BME280;2902;42.130;24.732;2022-11-20T07:27:24;98878.03;;;16.34;100.00
5755;BME280;2902;42.130;24.732;2022-11-20T07:29:50;98886.28;;;16.49;100.00
5755;BME280;2902;42.130;24.732;2022-11-20T07:32:17;98884.00;;;16.58;100.00
5755;BME280;2902;42.130;24.732;2022-11-20T07:34:45;98895.84;;;16.62;100.00
5755;BME280;2902;42.130;24.732;2022-11-20T07:37:12;98888.03;;;16.60;99.92
5755;BME280;2902;42.130;24.732;2022-11-20T07:39:39;98905.19;;;16.59;98.39
5755;BME280;2902;42.130;24.732;2022-11-20T07:42:06;98901.81;;;16.69;98.47
5755;BME280;2902;42.130;24.732;2022-11-20T07:44:33;98919.50;;;16.65;97.78
5755;BME280;2902;42.130;24.732;2022-11-20T07:47:00;98901.56;;;16.49;98.17
5755;BME280;2902;42.130;24.732;2022-11-20T07:49:27;98893.44;;;16.44;98.22
5755;BME280;2902;42.130;24.732;2022-11-20T07:51:55;98891.41;;;16.51;97.91
5755;BME280;2902;42.130;24.732;2022-11-20T07:54:22;98903.31;;;16.60;98.13
5755;BME280;2902;42.130;24.732;2022-11-20T07:56:49;98902.38;;;16.49;97.75
5755;BME280;2902;42.130;24.732;2022-11-20T07:59:16;98885.81;;;16.36;98.94
5755;BME280;2902;42.130;24.732;2022-11-20T08:01:43;98882.56;;;16.34;98.69
5755;BME280;2902;42.130;24.732;2022-11-20T08:04:09;98876.19;;;16.40;99.08
5755;BME280;2902;42.130;24.732;2022-11-20T08:06:36;98888.09;;;16.44;99.22
5755;BME280;2902;42.130;24.732;2022-11-20T08:09:04;98891.16;;;16.52;98.98
5755;BME280;2902;42.130;24.732;2022-11-20T08:11:31;98888.53;;;16.57;98.89
5755;BME280;2902;42.130;24.732;2022-11-20T08:14:15;98896.41;;;16.64;98.23
5755;BME280;2902;42.130;24.732;2022-11-20T08:16:44;98889.28;;;16.74;99.05
5755;BME280;2902;42.130;24.732;2022-11-20T08:19:11;98869.28;;;16.82;99.05
5755;BME280;2902;42.130;24.732;2022-11-20T08:21:38;98875.22;;;16.89;97.49
5755;BME280;2902;42.130;24.732;2022-11-20T08:24:07;98890.97;;;17.02;97.05
5755;BME280;2902;42.130;24.732;2022-11-20T08:26:35;98877.59;;;17.07;96.94
5755;BME280;2902;42.130;24.732;2022-11-20T08:29:03;98891.22;;;17.27;96.56
5755;BME280;2902;42.130;24.732;2022-11-20T08:31:30;98897.56;;;17.42;95.96
5755;BME280;2902;42.130;24.732;2022-11-20T08:33:57;98886.81;;;17.69;96.69
5755;BME280;2902;42.130;24.732;2022-11-20T08:36:24;98886.25;;;17.98;94.16
5755;BME280;2902;42.130;24.732;2022-11-20T08:38:52;98882.84;;;18.13;91.96
5755;BME280;2902;42.130;24.732;2022-11-20T08:41:21;98879.59;;;18.47;91.89
5755;BME280;2902;42.130;24.732;2022-11-20T08:43:54;98867.59;;;18.70;90.40
5755;BME280;2902;42.130;24.732;2022-11-20T08:46:21;98865.22;;;18.93;89.15
5755;BME280;2902;42.130;24.732;2022-11-20T08:48:48;98884.47;;;19.42;86.45
5755;BME280;2902;42.130;24.732;2022-11-20T08:51:15;98868.56;;;19.90;85.25
5755;BME280;2902;42.130;24.732;2022-11-20T08:53:42;98878.53;;;20.30;81.33
5755;BME280;2902;42.130;24.732;2022-11-20T08:56:09;98872.97;;;20.80;80.17
5755;BME280;2902;42.130;24.732;2022-11-20T08:58:38;98874.09;;;21.28;78.02
5755;BME280;2902;42.130;24.732;2022-11-20T09:01:05;98880.53;;;21.75;77.34
5755;BME280;2902;42.130;24.732;2022-11-20T09:03:31;98889.34;;;22.19;73.29
5755;BME280;2902;42.130;24.732;2022-11-20T09:05:59;98882.97;;;22.34;69.68
5755;BME280;2902;42.130;24.732;2022-11-20T09:08:26;98894.38;;;22.59;69.02
5755;BME280;2902;42.130;24.732;2022-11-20T09:10:53;98896.16;;;22.87;69.03
5755;BME280;2902;42.130;24.732;2022-11-20T09:13:21;98892.66;;;23.29;67.66
5755;BME280;2902;42.130;24.732;2022-11-20T09:15:54;98886.50;;;23.60;64.16
5755;BME280;2902;42.130;24.732;2022-11-20T09:18:21;98881.66;;;23.57;63.64
5755;BME280;2902;42.130;24.732;2022-11-20T09:20:48;98879.47;;;23.59;63.71
5755;BME280;2902;42.130;24.732;2022-11-20T09:23:15;98870.81;;;23.57;64.44
5755;BME280;2902;42.130;24.732;2022-11-20T09:25:42;98864.69;;;23.52;63.90
5755;BME280;2902;42.130;24.732;2022-11-20T09:28:09;98857.91;;;23.68;64.00
5755;BME280;2902;42.130;24.732;2022-11-20T09:30:36;98847.38;;;23.66;62.65
5755;BME280;2902;42.130;24.732;2022-11-20T09:33:05;98858.63;;;23.73;62.17
5755;BME280;2902;42.130;24.732;2022-11-20T09:35:32;98848.72;;;23.82;61.42
5755;BME280;2902;42.130;24.732;2022-11-20T09:38:04;98854.81;;;23.93;61.85
5755;BME280;2902;42.130;24.732;2022-11-20T09:40:31;98845.28;;;24.22;60.97
5755;BME280;2902;42.130;24.732;2022-11-20T09:43:00;98848.31;;;24.34;59.92
5755;BME280;2902;42.130;24.732;2022-11-20T09:45:54;98821.69;;;24.36;59.97
5755;BME280;2902;42.130;24.732;2022-11-20T09:48:36;98829.84;;;24.63;59.51
5755;BME280;2902;42.130;24.732;2022-11-20T09:51:19;98827.41;;;24.75;58.41
5755;BME280;2902;42.130;24.732;2022-11-20T09:53:59;98829.81;;;24.90;58.96
5755;BME280;2902;42.130;24.732;2022-11-20T09:56:30;98825.53;;;25.12;58.74
5755;BME280;2902;42.130;24.732;2022-11-20T09:59:02;98827.31;;;25.30;58.33
5755;BME280;2902;42.130;24.732;2022-11-20T10:01:32;98819.38;;;25.33;57.27
5755;BME280;2902;42.130;24.732;2022-11-20T10:04:03;98822.41;;;25.32;57.68
5755;BME280;2902;42.130;24.732;2022-11-20T10:06:33;98822.09;;;25.20;58.54
5755;BME280;2902;42.130;24.732;2022-11-20T10:09:06;98825.94;;;25.19;57.89
5755;BME280;2902;42.130;24.732;2022-11-20T10:11:46;98819.72;;;25.04;57.44
5755;BME280;2902;42.130;24.732;2022-11-20T10:14:26;98803.66;;;24.94;56.83
5755;BME280;2902;42.130;24.732;2022-11-20T10:17:02;98803.84;;;24.84;57.96
5755;BME280;2902;42.130;24.732;2022-11-20T10:19:42;98811.13;;;24.75;58.63
5755;BME280;2902;42.130;24.732;2022-11-20T10:22:20;98809.75;;;24.64;58.96
5755;BME280;2902;42.130;24.732;2022-11-20T10:24:56;98816.75;;;24.52;59.54
5755;BME280;2902;42.130;24.732;2022-11-20T10:27:58;98795.63;;;24.49;59.60
5755;BME280;2902;42.130;24.732;2022-11-20T10:30:30;98799.47;;;24.34;60.25
5755;BME280;2902;42.130;24.732;2022-11-20T10:33:04;98785.19;;;24.15;60.76
5755;BME280;2902;42.130;24.732;2022-11-20T10:35:36;98782.97;;;24.04;61.22
5755;BME280;2902;42.130;24.732;2022-11-20T10:38:09;98783.34;;;23.97;60.93
5755;BME280;2902;42.130;24.732;2022-11-20T10:40:39;98787.06;;;24.01;61.48
5755;BME280;2902;42.130;24.732;2022-11-20T10:43:11;98781.94;;;24.00;61.70
5755;BME280;2902;42.130;24.732;2022-11-20T10:45:47;98767.47;;;23.91;62.05
5755;BME280;2902;42.130;24.732;2022-11-20T10:48:19;98758.59;;;23.85;61.93
5755;BME280;2902;42.130;24.732;2022-11-20T10:50:59;98750.56;;;23.80;62.66
5755;BME280;2902;42.130;24.732;2022-11-20T10:53:45;98747.94;;;23.75;63.19
5755;BME280;2902;42.130;24.732;2022-11-20T10:56:18;98748.34;;;23.69;64.04
5755;BME280;2902;42.130;24.732;2022-11-20T10:58:54;98750.81;;;23.65;64.67
5755;BME280;2902;42.130;24.732;2022-11-20T11:01:26;98749.59;;;23.58;65.36
5755;BME280;2902;42.130;24.732;2022-11-20T11:03:55;98752.31;;;23.58;66.79
5755;BME280;2902;42.130;24.732;2022-11-20T11:06:28;98745.78;;;23.45;65.35
5755;BME280;2902;42.130;24.732;2022-11-20T11:09:01;98747.75;;;23.40;65.66
5755;BME280;2902;42.130;24.732;2022-11-20T11:11:31;98734.59;;;23.33;66.29
5755;BME280;2902;42.130;24.732;2022-11-20T11:14:04;98721.34;;;23.32;66.57
5755;BME280;2902;42.130;24.732;2022-11-20T11:16:31;98718.91;;;23.30;67.11
5755;BME280;2902;42.130;24.732;2022-11-20T11:19:04;98710.25;;;23.28;66.99
5755;BME280;2902;42.130;24.732;2022-11-20T11:21:32;98710.25;;;23.28;67.55
5755;BME280;2902;42.130;24.732;2022-11-20T11:24:00;98699.50;;;23.23;67.46
5755;BME280;2902;42.130;24.732;2022-11-20T11:26:27;98708.22;;;23.20;67.30
5755;BME280;2902;42.130;24.732;2022-11-20T11:28:55;98685.69;;;23.06;69.20
5755;BME280;2902;42.130;24.732;2022-11-20T11:31:24;98686.50;;;23.07;69.02
5755;BME280;2902;42.130;24.732;2022-11-20T11:33:51;98686.66;;;22.97;68.46
5755;BME280;2902;42.130;24.732;2022-11-20T11:36:19;98690.25;;;22.92;67.80
5755;BME280;2902;42.130;24.732;2022-11-20T11:38:51;98691.34;;;22.91;67.83
5755;BME280;2902;42.130;24.732;2022-11-20T11:41:20;98687.22;;;22.94;69.42
5755;BME280;2902;42.130;24.732;2022-11-20T11:43:52;98690.84;;;22.89;70.21
5755;BME280;2902;42.130;24.732;2022-11-20T11:46:37;98707.91;;;22.71;69.51
5755;BME280;2902;42.130;24.732;2022-11-20T11:49:16;98702.44;;;22.34;70.57
5755;BME280;2902;42.130;24.732;2022-11-20T11:51:52;98695.75;;;22.08;70.68
5755;BME280;2902;42.130;24.732;2022-11-20T11:54:28;98693.13;;;22.03;69.98
5755;BME280;2902;42.130;24.732;2022-11-20T11:57:00;98694.72;;;22.04;70.42
5755;BME280;2902;42.130;24.732;2022-11-20T11:59:43;98702.75;;;22.09;70.84
5755;BME280;2902;42.130;24.732;2022-11-20T12:02:22;98710.03;;;22.14;70.88
5755;BME280;2902;42.130;24.732;2022-11-20T12:04:54;98695.13;;;21.93;72.40
5755;BME280;2902;42.130;24.732;2022-11-20T12:07:34;98689.13;;;21.72;72.51
5755;BME280;2902;42.130;24.732;2022-11-20T12:10:15;98682.66;;;21.68;72.49
5755;BME280;2902;42.130;24.732;2022-11-20T12:12:46;98681.03;;;21.72;72.09
5755;BME280;2902;42.130;24.732;2022-11-20T12:15:23;98691.75;;;21.82;72.71
5755;BME280;2902;42.130;24.732;2022-11-20T12:17:52;98681.72;;;21.83;72.27
5755;BME280;2902;42.130;24.732;2022-11-20T12:20:19;98678.72;;;21.84;72.34
5755;BME280;2902;42.130;24.732;2022-11-20T12:22:53;98683.91;;;21.81;72.39
5755;BME280;2902;42.130;24.732;2022-11-20T12:25:26;98680.69;;;21.79;72.68
5755;BME280;2902;42.130;24.732;2022-11-20T12:28:11;98664.91;;;21.62;71.78
5755;BME280;2902;42.130;24.732;2022-11-20T12:30:51;98661.66;;;21.60;72.21
5755;BME280;2902;42.130;24.732;2022-11-20T12:33:45;98663.88;;;21.58;72.43
5755;BME280;2902;42.130;24.732;2022-11-20T12:36:21;98676.63;;;21.53;69.20
5755;BME280;2902;42.130;24.732;2022-11-20T12:39:16;98663.34;;;21.56;69.13
5755;BME280;2902;42.130;24.732;2022-11-20T12:42:05;98661.94;;;21.59;68.12
5755;BME280;2902;42.130;24.732;2022-11-20T12:45:05;98668.06;;;21.69;68.03
5755;BME280;2902;42.130;24.732;2022-11-20T12:47:55;98668.09;;;21.64;65.80
5755;BME280;2902;42.130;24.732;2022-11-20T12:50:32;98673.47;;;21.69;64.05
5755;BME280;2902;42.130;24.732;2022-11-20T12:53:04;98685.53;;;21.82;64.07
5755;BME280;2902;42.130;24.732;2022-11-20T12:55:47;98672.88;;;21.77;66.63
5755;BME280;2902;42.130;24.732;2022-11-20T12:58:27;98678.22;;;21.82;65.49
5755;BME280;2902;42.130;24.732;2022-11-20T13:01:02;98688.16;;;21.87;66.10
5755;BME280;2902;42.130;24.732;2022-11-20T13:03:58;98684.06;;;21.89;65.50
5755;BME280;2902;42.130;24.732;2022-11-20T13:06:33;98675.63;;;21.72;66.09
5755;BME280;2902;42.130;24.732;2022-11-20T13:09:00;98679.53;;;21.61;64.02
5755;BME280;2902;42.130;24.732;2022-11-20T13:11:32;98694.63;;;21.62;65.05
5755;BME280;2902;42.130;24.732;2022-11-20T13:14:12;98694.06;;;21.65;66.26
5755;BME280;2902;42.130;24.732;2022-11-20T13:16:46;98688.13;;;21.63;66.17
5755;BME280;2902;42.130;24.732;2022-11-20T13:19:16;98698.72;;;21.60;65.83